Terminal Aerodrome Forecast
Issued by NWS Pueblo, CO

Home | Current Version | Previous Version | Text Only | Print | Product List | Glossary On
Versions: 1 2 3 4 5 6 7 8 9 10 11 12 13 14 15 16 17 18 19 20 21 22 23 24 25 26 27 28 29
000
FTUS45 KPUB 011120
TAFCOS
TAF
KCOS 011120Z 0112/0212 VRB06KT P6SM SCT200
     FM011600 22012KT P6SM FEW120 SCT200
     FM011800 23012G22KT P6SM SCT120 SCT200
     FM012100 25015G30KT P6SM SCT120 BKN200
     FM020200 35015KT P6SM SCT100 BKN120
     FM020600 08007KT P6SM VCSH SCT025 BKN040=

USA.gov is the U.S. government's official web portal to all federal, state and local government web resources and services.